sensor_id;sensor_type;location;lat;lon;timestamp;P1;durP1;ratioP1;P2;durP2;ratioP2
22610;SDS011;11472;45.494;12.142;2023-05-07T00:00:01;11.40;;;9.40;;
22610;SDS011;11472;45.494;12.142;2023-05-07T00:01:01;11.40;;;9.40;;
22610;SDS011;11472;45.494;12.142;2023-05-07T00:02:01;12.20;;;9.80;;
22610;SDS011;11472;45.494;12.142;2023-05-07T00:03:01;12.20;;;9.80;;
22610;SDS011;11472;45.494;12.142;2023-05-07T00:04:01;12.20;;;9.80;;
22610;SDS011;11472;45.494;12.142;2023-05-07T00:05:02;12.20;;;9.80;;
22610;SDS011;11472;45.494;12.142;2023-05-07T00:06:00;12.20;;;9.80;;
22610;SDS011;11472;45.494;12.142;2023-05-07T00:07:00;12.20;;;9.80;;
22610;SDS011;11472;45.494;12.142;2023-05-07T00:08:00;12.20;;;9.80;;
22610;SDS011;11472;45.494;12.142;2023-05-07T00:09:00;12.20;;;9.80;;
22610;SDS011;11472;45.494;12.142;2023-05-07T00:10:01;12.20;;;9.80;;
22610;SDS011;11472;45.494;12.142;2023-05-07T00:11:00;12.20;;;9.80;;
22610;SDS011;11472;45.494;12.142;2023-05-07T00:12:01;12.20;;;9.80;;
22610;SDS011;11472;45.494;12.142;2023-05-07T00:13:00;12.20;;;9.80;;
22610;SDS011;11472;45.494;12.142;2023-05-07T00:14:00;12.20;;;9.80;;
22610;SDS011;11472;45.494;12.142;2023-05-07T00:15:02;12.20;;;9.80;;
22610;SDS011;11472;45.494;12.142;2023-05-07T00:16:02;12.20;;;9.80;;
22610;SDS011;11472;45.494;12.142;2023-05-07T00:17:00;16.50;;;9.90;;
22610;SDS011;11472;45.494;12.142;2023-05-07T00:18:01;16.50;;;9.90;;
22610;SDS011;11472;45.494;12.142;2023-05-07T00:19:00;16.50;;;9.90;;
22610;SDS011;11472;45.494;12.142;2023-05-07T00:20:00;16.50;;;9.90;;
22610;SDS011;11472;45.494;12.142;2023-05-07T00:21:00;16.50;;;9.90;;
22610;SDS011;11472;45.494;12.142;2023-05-07T00:22:00;16.50;;;9.90;;
22610;SDS011;11472;45.494;12.142;2023-05-07T00:23:00;16.50;;;9.90;;
22610;SDS011;11472;45.494;12.142;2023-05-07T00:24:00;16.50;;;9.90;;
22610;SDS011;11472;45.494;12.142;2023-05-07T00:25:00;16.50;;;9.90;;
22610;SDS011;11472;45.494;12.142;2023-05-07T00:26:00;16.50;;;9.90;;
22610;SDS011;11472;45.494;12.142;2023-05-07T00:27:00;16.50;;;9.90;;
22610;SDS011;11472;45.494;12.142;2023-05-07T00:28:03;16.50;;;9.90;;
22610;SDS011;11472;45.494;12.142;2023-05-07T00:29:00;16.50;;;9.90;;
22610;SDS011;11472;45.494;12.142;2023-05-07T00:30:00;16.50;;;9.90;;
22610;SDS011;11472;45.494;12.142;2023-05-07T00:31:00;16.50;;;9.90;;
22610;SDS011;11472;45.494;12.142;2023-05-07T00:32:00;13.60;;;9.20;;
22610;SDS011;11472;45.494;12.142;2023-05-07T00:33:01;13.60;;;9.20;;
22610;SDS011;11472;45.494;12.142;2023-05-07T00:34:00;13.60;;;9.20;;
22610;SDS011;11472;45.494;12.142;2023-05-07T00:35:00;13.60;;;9.20;;
22610;SDS011;11472;45.494;12.142;2023-05-07T00:36:01;13.60;;;9.20;;
22610;SDS011;11472;45.494;12.142;2023-05-07T00:37:01;13.60;;;9.20;;
22610;SDS011;11472;45.494;12.142;2023-05-07T00:38:00;13.60;;;9.20;;
22610;SDS011;11472;45.494;12.142;2023-05-07T00:39:03;13.60;;;9.20;;
22610;SDS011;11472;45.494;12.142;2023-05-07T00:40:03;13.60;;;9.20;;
22610;SDS011;11472;45.494;12.142;2023-05-07T00:41:02;13.60;;;9.20;;
22610;SDS011;11472;45.494;12.142;2023-05-07T00:42:01;13.60;;;9.20;;
22610;SDS011;11472;45.494;12.142;2023-05-07T00:43:00;13.60;;;9.20;;
22610;SDS011;11472;45.494;12.142;2023-05-07T00:44:02;13.60;;;9.20;;
22610;SDS011;11472;45.494;12.142;2023-05-07T00:45:00;13.60;;;9.20;;
22610;SDS011;11472;45.494;12.142;2023-05-07T00:46:01;13.60;;;9.20;;
22610;SDS011;11472;45.494;12.142;2023-05-07T00:47:02;10.70;;;9.20;;
22610;SDS011;11472;45.494;12.142;2023-05-07T00:48:01;10.70;;;9.20;;
22610;SDS011;11472;45.494;12.142;2023-05-07T00:49:00;10.70;;;9.20;;
22610;SDS011;11472;45.494;12.142;2023-05-07T00:50:00;10.70;;;9.20;;
22610;SDS011;11472;45.494;12.142;2023-05-07T00:51:00;10.70;;;9.20;;
22610;SDS011;11472;45.494;12.142;2023-05-07T00:52:01;10.70;;;9.20;;
22610;SDS011;11472;45.494;12.142;2023-05-07T00:53:01;10.70;;;9.20;;
22610;SDS011;11472;45.494;12.142;2023-05-07T00:54:02;10.70;;;9.20;;
22610;SDS011;11472;45.494;12.142;2023-05-07T00:55:04;10.70;;;9.20;;
22610;SDS011;11472;45.494;12.142;2023-05-07T00:56:00;10.70;;;9.20;;
22610;SDS011;11472;45.494;12.142;2023-05-07T00:57:02;10.70;;;9.20;;
22610;SDS011;11472;45.494;12.142;2023-05-07T00:58:00;10.70;;;9.20;;
22610;SDS011;11472;45.494;12.142;2023-05-07T00:59:02;10.70;;;9.20;;
22610;SDS011;11472;45.494;12.142;2023-05-07T01:00:00;10.70;;;9.20;;
22610;SDS011;11472;45.494;12.142;2023-05-07T01:01:01;10.70;;;9.20;;
22610;SDS011;11472;45.494;12.142;2023-05-07T01:02:00;10.70;;;9.10;;
22610;SDS011;11472;45.494;12.142;2023-05-07T01:03:00;10.70;;;9.10;;
22610;SDS011;11472;45.494;12.142;2023-05-07T01:04:01;10.70;;;9.10;;
22610;SDS011;11472;45.494;12.142;2023-05-07T01:05:01;10.70;;;9.10;;
22610;SDS011;11472;45.494;12.142;2023-05-07T01:06:00;10.70;;;9.10;;
22610;SDS011;11472;45.494;12.142;2023-05-07T01:07:00;10.70;;;9.10;;
22610;SDS011;11472;45.494;12.142;2023-05-07T01:08:01;10.70;;;9.10;;
22610;SDS011;11472;45.494;12.142;2023-05-07T01:09:00;10.70;;;9.10;;
22610;SDS011;11472;45.494;12.142;2023-05-07T01:10:01;10.70;;;9.10;;
22610;SDS011;11472;45.494;12.142;2023-05-07T01:11:00;10.70;;;9.10;;
22610;SDS011;11472;45.494;12.142;2023-05-07T01:12:00;10.70;;;9.10;;
22610;SDS011;11472;45.494;12.142;2023-05-07T01:13:00;10.70;;;9.10;;
22610;SDS011;11472;45.494;12.142;2023-05-07T01:14:00;10.70;;;9.10;;
22610;SDS011;11472;45.494;12.142;2023-05-07T01:15:01;10.70;;;9.10;;
22610;SDS011;11472;45.494;12.142;2023-05-07T01:16:00;10.70;;;9.10;;
22610;SDS011;11472;45.494;12.142;2023-05-07T01:17:00;11.40;;;8.90;;
22610;SDS011;11472;45.494;12.142;2023-05-07T01:18:01;11.40;;;8.90;;
22610;SDS011;11472;45.494;12.142;2023-05-07T01:19:00;11.40;;;8.90;;
22610;SDS011;11472;45.494;12.142;2023-05-07T01:20:00;11.40;;;8.90;;
22610;SDS011;11472;45.494;12.142;2023-05-07T01:21:00;11.40;;;8.90;;
22610;SDS011;11472;45.494;12.142;2023-05-07T01:22:08;11.40;;;8.90;;
22610;SDS011;11472;45.494;12.142;2023-05-07T01:23:01;11.40;;;8.90;;
22610;SDS011;11472;45.494;12.142;2023-05-07T01:24:01;11.40;;;8.90;;
22610;SDS011;11472;45.494;12.142;2023-05-07T01:25:01;11.40;;;8.90;;
22610;SDS011;11472;45.494;12.142;2023-05-07T01:26:00;11.40;;;8.90;;
22610;SDS011;11472;45.494;12.142;2023-05-07T01:27:01;11.40;;;8.90;;
22610;SDS011;11472;45.494;12.142;2023-05-07T01:28:06;11.40;;;8.90;;
22610;SDS011;11472;45.494;12.142;2023-05-07T01:29:01;11.40;;;8.90;;
22610;SDS011;11472;45.494;12.142;2023-05-07T01:30:01;11.40;;;8.90;;
22610;SDS011;11472;45.494;12.142;2023-05-07T01:31:02;11.40;;;8.90;;
22610;SDS011;11472;45.494;12.142;2023-05-07T01:32:01;13.60;;;9.40;;
22610;SDS011;11472;45.494;12.142;2023-05-07T01:33:04;13.60;;;9.40;;
22610;SDS011;11472;45.494;12.142;2023-05-07T01:34:01;13.60;;;9.40;;
22610;SDS011;11472;45.494;12.142;2023-05-07T01:35:01;13.60;;;9.40;;
22610;SDS011;11472;45.494;12.142;2023-05-07T01:36:02;13.60;;;9.40;;
22610;SDS011;11472;45.494;12.142;2023-05-07T01:37:00;13.60;;;9.40;;
22610;SDS011;11472;45.494;12.142;2023-05-07T01:38:01;13.60;;;9.40;;
22610;SDS011;11472;45.494;12.142;2023-05-07T01:39:00;13.60;;;9.40;;
22610;SDS011;11472;45.494;12.142;2023-05-07T01:40:01;13.60;;;9.40;;
22610;SDS011;11472;45.494;12.142;2023-05-07T01:41:01;13.60;;;9.40;;
22610;SDS011;11472;45.494;12.142;2023-05-07T01:42:00;13.60;;;9.40;;
22610;SDS011;11472;45.494;12.142;2023-05-07T01:43:01;13.60;;;9.40;;
22610;SDS011;11472;45.494;12.142;2023-05-07T01:44:00;13.60;;;9.40;;
22610;SDS011;11472;45.494;12.142;2023-05-07T01:45:00;13.60;;;9.40;;
22610;SDS011;11472;45.494;12.142;2023-05-07T01:46:01;13.60;;;9.40;;
22610;SDS011;11472;45.494;12.142;2023-05-07T01:47:01;15.40;;;12.10;;
22610;SDS011;11472;45.494;12.142;2023-05-07T01:48:01;15.40;;;12.10;;
22610;SDS011;11472;45.494;12.142;2023-05-07T01:49:00;15.40;;;12.10;;
22610;SDS011;11472;45.494;12.142;2023-05-07T01:50:00;15.40;;;12.10;;
22610;SDS011;11472;45.494;12.142;2023-05-07T01:51:00;15.40;;;12.10;;
22610;SDS011;11472;45.494;12.142;2023-05-07T01:52:00;15.40;;;12.10;;
22610;SDS011;11472;45.494;12.142;2023-05-07T01:53:01;15.40;;;12.10;;
22610;SDS011;11472;45.494;12.142;2023-05-07T01:54:01;15.40;;;12.10;;
22610;SDS011;11472;45.494;12.142;2023-05-07T01:55:00;15.40;;;12.10;;
22610;SDS011;11472;45.494;12.142;2023-05-07T01:56:00;15.40;;;12.10;;
22610;SDS011;11472;45.494;12.142;2023-05-07T01:57:00;15.40;;;12.10;;
22610;SDS011;11472;45.494;12.142;2023-05-07T01:58:00;15.40;;;12.10;;
22610;SDS011;11472;45.494;12.142;2023-05-07T01:59:02;15.40;;;12.10;;
22610;SDS011;11472;45.494;12.142;2023-05-07T02:00:01;15.40;;;12.10;;
22610;SDS011;11472;45.494;12.142;2023-05-07T02:01:00;15.40;;;12.10;;
22610;SDS011;11472;45.494;12.142;2023-05-07T02:02:00;15.40;;;12.10;;
22610;SDS011;11472;45.494;12.142;2023-05-07T02:03:01;22.40;;;16.20;;
22610;SDS011;11472;45.494;12.142;2023-05-07T02:04:00;22.40;;;16.20;;
22610;SDS011;11472;45.494;12.142;2023-05-07T02:05:02;22.40;;;16.20;;
22610;SDS011;11472;45.494;12.142;2023-05-07T02:06:01;22.40;;;16.20;;
22610;SDS011;11472;45.494;12.142;2023-05-07T02:07:00;22.40;;;16.20;;
22610;SDS011;11472;45.494;12.142;2023-05-07T02:08:00;22.40;;;16.20;;
22610;SDS011;11472;45.494;12.142;2023-05-07T02:09:00;22.40;;;16.20;;
22610;SDS011;11472;45.494;12.142;2023-05-07T02:10:00;22.40;;;16.20;;
22610;SDS011;11472;45.494;12.142;2023-05-07T02:11:01;22.40;;;16.20;;
22610;SDS011;11472;45.494;12.142;2023-05-07T02:12:01;22.40;;;16.20;;
22610;SDS011;11472;45.494;12.142;2023-05-07T02:13:02;22.40;;;16.20;;
22610;SDS011;11472;45.494;12.142;2023-05-07T02:14:00;22.40;;;16.20;;
22610;SDS011;11472;45.494;12.142;2023-05-07T02:15:00;22.40;;;16.20;;
22610;SDS011;11472;45.494;12.142;2023-05-07T02:16:01;22.40;;;16.20;;
22610;SDS011;11472;45.494;12.142;2023-05-07T02:17:00;22.40;;;16.20;;
22610;SDS011;11472;45.494;12.142;2023-05-07T02:18:03;26.90;;;19.90;;
22610;SDS011;11472;45.494;12.142;2023-05-07T02:19:00;26.90;;;19.90;;
22610;SDS011;11472;45.494;12.142;2023-05-07T02:20:00;26.90;;;19.90;;
22610;SDS011;11472;45.494;12.142;2023-05-07T02:21:00;26.90;;;19.90;;
22610;SDS011;11472;45.494;12.142;2023-05-07T02:22:00;26.90;;;19.90;;
22610;SDS011;11472;45.494;12.142;2023-05-07T02:23:00;26.90;;;19.90;;
22610;SDS011;11472;45.494;12.142;2023-05-07T02:24:00;26.90;;;19.90;;
22610;SDS011;11472;45.494;12.142;2023-05-07T02:25:00;26.90;;;19.90;;
22610;SDS011;11472;45.494;12.142;2023-05-07T02:26:00;26.90;;;19.90;;
22610;SDS011;11472;45.494;12.142;2023-05-07T02:27:01;26.90;;;19.90;;
22610;SDS011;11472;45.494;12.142;2023-05-07T02:28:00;26.90;;;19.90;;
22610;SDS011;11472;45.494;12.142;2023-05-07T02:29:00;26.90;;;19.90;;
22610;SDS011;11472;45.494;12.142;2023-05-07T02:30:00;26.90;;;19.90;;
22610;SDS011;11472;45.494;12.142;2023-05-07T02:31:02;26.90;;;19.90;;
22610;SDS011;11472;45.494;12.142;2023-05-07T02:32:00;26.90;;;19.90;;
22610;SDS011;11472;45.494;12.142;2023-05-07T02:33:00;30.20;;;21.60;;
22610;SDS011;11472;45.494;12.142;2023-05-07T02:34:00;30.20;;;21.60;;
22610;SDS011;11472;45.494;12.142;2023-05-07T02:35:00;30.20;;;21.60;;
22610;SDS011;11472;45.494;12.142;2023-05-07T02:36:08;30.20;;;21.60;;
22610;SDS011;11472;45.494;12.142;2023-05-07T02:37:00;30.20;;;21.60;;
22610;SDS011;11472;45.494;12.142;2023-05-07T02:38:00;30.20;;;21.60;;
22610;SDS011;11472;45.494;12.142;2023-05-07T02:39:00;30.20;;;21.60;;
22610;SDS011;11472;45.494;12.142;2023-05-07T02:40:00;30.20;;;21.60;;
22610;SDS011;11472;45.494;12.142;2023-05-07T02:41:00;30.20;;;21.60;;
22610;SDS011;11472;45.494;12.142;2023-05-07T02:42:01;30.20;;;21.60;;
22610;SDS011;11472;45.494;12.142;2023-05-07T02:43:00;30.20;;;21.60;;
22610;SDS011;11472;45.494;12.142;2023-05-07T02:44:00;30.20;;;21.60;;
22610;SDS011;11472;45.494;12.142;2023-05-07T02:45:00;30.20;;;21.60;;
22610;SDS011;11472;45.494;12.142;2023-05-07T02:46:03;30.20;;;21.60;;
22610;SDS011;11472;45.494;12.142;2023-05-07T02:47:00;30.20;;;21.60;;
22610;SDS011;11472;45.494;12.142;2023-05-07T02:48:00;21.40;;;16.60;;
22610;SDS011;11472;45.494;12.142;2023-05-07T02:49:00;21.40;;;16.60;;
22610;SDS011;11472;45.494;12.142;2023-05-07T02:50:00;21.40;;;16.60;;
22610;SDS011;11472;45.494;12.142;2023-05-07T02:51:01;21.40;;;16.60;;
22610;SDS011;11472;45.494;12.142;2023-05-07T02:52:00;21.40;;;16.60;;
22610;SDS011;11472;45.494;12.142;2023-05-07T02:53:01;21.40;;;16.60;;
22610;SDS011;11472;45.494;12.142;2023-05-07T02:54:01;21.40;;;16.60;;
22610;SDS011;11472;45.494;12.142;2023-05-07T02:55:00;21.40;;;16.60;;
22610;SDS011;11472;45.494;12.142;2023-05-07T02:56:01;21.40;;;16.60;;
22610;SDS011;11472;45.494;12.142;2023-05-07T02:57:02;21.40;;;16.60;;
22610;SDS011;11472;45.494;12.142;2023-05-07T02:58:00;21.40;;;16.60;;
22610;SDS011;11472;45.494;12.142;2023-05-07T02:59:00;21.40;;;16.60;;
22610;SDS011;11472;45.494;12.142;2023-05-07T03:00:11;21.40;;;16.60;;
22610;SDS011;11472;45.494;12.142;2023-05-07T03:01:01;21.40;;;16.60;;
22610;SDS011;11472;45.494;12.142;2023-05-07T03:02:00;21.40;;;16.60;;
22610;SDS011;11472;45.494;12.142;2023-05-07T03:03:00;20.90;;;17.20;;
22610;SDS011;11472;45.494;12.142;2023-05-07T03:04:00;20.90;;;17.20;;
22610;SDS011;11472;45.494;12.142;2023-05-07T03:05:01;20.90;;;17.20;;
22610;SDS011;11472;45.494;12.142;2023-05-07T03:06:01;20.90;;;17.20;;
22610;SDS011;11472;45.494;12.142;2023-05-07T03:07:00;20.90;;;17.20;;
22610;SDS011;11472;45.494;12.142;2023-05-07T03:08:00;20.90;;;17.20;;
22610;SDS011;11472;45.494;12.142;2023-05-07T03:09:00;20.90;;;17.20;;
22610;SDS011;11472;45.494;12.142;2023-05-07T03:10:08;20.90;;;17.20;;
22610;SDS011;11472;45.494;12.142;2023-05-07T03:11:00;20.90;;;17.20;;
22610;SDS011;11472;45.494;12.142;2023-05-07T03:12:01;20.90;;;17.20;;
22610;SDS011;11472;45.494;12.142;2023-05-07T03:13:01;20.90;;;17.20;;
22610;SDS011;11472;45.494;12.142;2023-05-07T03:14:01;20.90;;;17.20;;
22610;SDS011;11472;45.494;12.142;2023-05-07T03:15:00;20.90;;;17.20;;
22610;SDS011;11472;45.494;12.142;2023-05-07T03:16:00;20.90;;;17.20;;
22610;SDS011;11472;45.494;12.142;2023-05-07T03:17:00;20.90;;;17.20;;
22610;SDS011;11472;45.494;12.142;2023-05-07T03:18:00;27.50;;;17.90;;
22610;SDS011;11472;45.494;12.142;2023-05-07T03:19:01;27.50;;;17.90;;
22610;SDS011;11472;45.494;12.142;2023-05-07T03:20:00;27.50;;;17.90;;
22610;SDS011;11472;45.494;12.142;2023-05-07T03:21:00;27.50;;;17.90;;
22610;SDS011;11472;45.494;12.142;2023-05-07T03:22:00;27.50;;;17.90;;
22610;SDS011;11472;45.494;12.142;2023-05-07T03:23:00;27.50;;;17.90;;
22610;SDS011;11472;45.494;12.142;2023-05-07T03:24:01;27.50;;;17.90;;
22610;SDS011;11472;45.494;12.142;2023-05-07T03:25:00;27.50;;;17.90;;
22610;SDS011;11472;45.494;12.142;2023-05-07T03:26:00;27.50;;;17.90;;
22610;SDS011;11472;45.494;12.142;2023-05-07T03:27:01;27.50;;;17.90;;
22610;SDS011;11472;45.494;12.142;2023-05-07T03:28:00;27.50;;;17.90;;
22610;SDS011;11472;45.494;12.142;2023-05-07T03:29:00;27.50;;;17.90;;
22610;SDS011;11472;45.494;12.142;2023-05-07T03:30:00;27.50;;;17.90;;
22610;SDS011;11472;45.494;12.142;2023-05-07T03:31:00;27.50;;;17.90;;
22610;SDS011;11472;45.494;12.142;2023-05-07T03:32:00;27.50;;;17.90;;
22610;SDS011;11472;45.494;12.142;2023-05-07T03:33:00;25.90;;;18.50;;
22610;SDS011;11472;45.494;12.142;2023-05-07T03:34:00;25.90;;;18.50;;
22610;SDS011;11472;45.494;12.142;2023-05-07T03:35:01;25.90;;;18.50;;
22610;SDS011;11472;45.494;12.142;2023-05-07T03:36:01;25.90;;;18.50;;
22610;SDS011;11472;45.494;12.142;2023-05-07T03:37:00;25.90;;;18.50;;
22610;SDS011;11472;45.494;12.142;2023-05-07T03:38:01;25.90;;;18.50;;
22610;SDS011;11472;45.494;12.142;2023-05-07T03:39:00;25.90;;;18.50;;
22610;SDS011;11472;45.494;12.142;2023-05-07T03:40:00;25.90;;;18.50;;
22610;SDS011;11472;45.494;12.142;2023-05-07T03:41:00;25.90;;;18.50;;
22610;SDS011;11472;45.494;12.142;2023-05-07T03:42:01;25.90;;;18.50;;
22610;SDS011;11472;45.494;12.142;2023-05-07T03:43:00;25.90;;;18.50;;
22610;SDS011;11472;45.494;12.142;2023-05-07T03:44:00;25.90;;;18.50;;
22610;SDS011;11472;45.494;12.142;2023-05-07T03:45:00;25.90;;;18.50;;
22610;SDS011;11472;45.494;12.142;2023-05-07T03:46:00;25.90;;;18.50;;
22610;SDS011;11472;45.494;12.142;2023-05-07T03:47:00;25.90;;;18.50;;
22610;SDS011;11472;45.494;12.142;2023-05-07T03:48:01;25.30;;;18.10;;
22610;SDS011;11472;45.494;12.142;2023-05-07T03:49:00;25.30;;;18.10;;
22610;SDS011;11472;45.494;12.142;2023-05-07T03:50:00;25.30;;;18.10;;
22610;SDS011;11472;45.494;12.142;2023-05-07T03:51:00;25.30;;;18.10;;
22610;SDS011;11472;45.494;12.142;2023-05-07T03:52:00;25.30;;;18.10;;
22610;SDS011;11472;45.494;12.142;2023-05-07T03:53:00;25.30;;;18.10;;
22610;SDS011;11472;45.494;12.142;2023-05-07T03:54:00;25.30;;;18.10;;
22610;SDS011;11472;45.494;12.142;2023-05-07T03:55:00;25.30;;;18.10;;
22610;SDS011;11472;45.494;12.142;2023-05-07T03:56:00;25.30;;;18.10;;
22610;SDS011;11472;45.494;12.142;2023-05-07T03:57:01;25.30;;;18.10;;
22610;SDS011;11472;45.494;12.142;2023-05-07T03:58:00;25.30;;;18.10;;
22610;SDS011;11472;45.494;12.142;2023-05-07T03:59:01;25.30;;;18.10;;
22610;SDS011;11472;45.494;12.142;2023-05-07T04:00:00;25.30;;;18.10;;
22610;SDS011;11472;45.494;12.142;2023-05-07T04:01:01;25.30;;;18.10;;
22610;SDS011;11472;45.494;12.142;2023-05-07T04:02:02;25.30;;;18.10;;
22610;SDS011;11472;45.494;12.142;2023-05-07T04:03:00;22.70;;;17.30;;
22610;SDS011;11472;45.494;12.142;2023-05-07T04:04:00;22.70;;;17.30;;
22610;SDS011;11472;45.494;12.142;2023-05-07T04:05:01;22.70;;;17.30;;
22610;SDS011;11472;45.494;12.142;2023-05-07T04:06:00;22.70;;;17.30;;
22610;SDS011;11472;45.494;12.142;2023-05-07T04:07:00;22.70;;;17.30;;
22610;SDS011;11472;45.494;12.142;2023-05-07T04:08:01;22.70;;;17.30;;
22610;SDS011;11472;45.494;12.142;2023-05-07T04:09:00;22.70;;;17.30;;
22610;SDS011;11472;45.494;12.142;2023-05-07T04:10:00;22.70;;;17.30;;
22610;SDS011;11472;45.494;12.142;2023-05-07T04:11:01;22.70;;;17.30;;
22610;SDS011;11472;45.494;12.142;2023-05-07T04:12:01;22.70;;;17.30;;
22610;SDS011;11472;45.494;12.142;2023-05-07T04:13:00;22.70;;;17.30;;
22610;SDS011;11472;45.494;12.142;2023-05-07T04:14:00;22.70;;;17.30;;
22610;SDS011;11472;45.494;12.142;2023-05-07T04:15:00;22.70;;;17.30;;
22610;SDS011;11472;45.494;12.142;2023-05-07T04:16:02;22.70;;;17.30;;
22610;SDS011;11472;45.494;12.142;2023-05-07T04:17:00;22.70;;;17.30;;
22610;SDS011;11472;45.494;12.142;2023-05-07T04:18:00;26.30;;;18.60;;
22610;SDS011;11472;45.494;12.142;2023-05-07T04:19:00;26.30;;;18.60;;
22610;SDS011;11472;45.494;12.142;2023-05-07T04:20:00;26.30;;;18.60;;
22610;SDS011;11472;45.494;12.142;2023-05-07T04:21:00;26.30;;;18.60;;
22610;SDS011;11472;45.494;12.142;2023-05-07T04:22:00;26.30;;;18.60;;
22610;SDS011;11472;45.494;12.142;2023-05-07T04:23:00;26.30;;;18.60;;
22610;SDS011;11472;45.494;12.142;2023-05-07T04:24:02;26.30;;;18.60;;
22610;SDS011;11472;45.494;12.142;2023-05-07T04:25:01;26.30;;;18.60;;
22610;SDS011;11472;45.494;12.142;2023-05-07T04:26:00;26.30;;;18.60;;
22610;SDS011;11472;45.494;12.142;2023-05-07T04:27:01;26.30;;;18.60;;
22610;SDS011;11472;45.494;12.142;2023-05-07T04:28:00;26.30;;;18.60;;
22610;SDS011;11472;45.494;12.142;2023-05-07T04:29:01;26.30;;;18.60;;
22610;SDS011;11472;45.494;12.142;2023-05-07T04:30:01;26.30;;;18.60;;
22610;SDS011;11472;45.494;12.142;2023-05-07T04:31:00;26.30;;;18.60;;
22610;SDS011;11472;45.494;12.142;2023-05-07T04:32:01;26.30;;;18.60;;
22610;SDS011;11472;45.494;12.142;2023-05-07T04:33:00;24.90;;;19.00;;
22610;SDS011;11472;45.494;12.142;2023-05-07T04:34:01;24.90;;;19.00;;
22610;SDS011;11472;45.494;12.142;2023-05-07T04:35:00;24.90;;;19.00;;
22610;SDS011;11472;45.494;12.142;2023-05-07T04:36:03;24.90;;;19.00;;
22610;SDS011;11472;45.494;12.142;2023-05-07T04:37:00;24.90;;;19.00;;
22610;SDS011;11472;45.494;12.142;2023-05-07T04:38:01;24.90;;;19.00;;
22610;SDS011;11472;45.494;12.142;2023-05-07T04:39:02;24.90;;;19.00;;
22610;SDS011;11472;45.494;12.142;2023-05-07T04:40:00;24.90;;;19.00;;
22610;SDS011;11472;45.494;12.142;2023-05-07T04:41:05;24.90;;;19.00;;
22610;SDS011;11472;45.494;12.142;2023-05-07T04:42:00;24.90;;;19.00;;
22610;SDS011;11472;45.494;12.142;2023-05-07T04:43:01;24.90;;;19.00;;
22610;SDS011;11472;45.494;12.142;2023-05-07T04:44:00;24.90;;;19.00;;
22610;SDS011;11472;45.494;12.142;2023-05-07T04:45:01;24.90;;;19.00;;
22610;SDS011;11472;45.494;12.142;2023-05-07T04:46:00;24.90;;;19.00;;
22610;SDS011;11472;45.494;12.142;2023-05-07T04:47:00;24.90;;;19.00;;
22610;SDS011;11472;45.494;12.142;2023-05-07T04:48:00;25.10;;;19.80;;
22610;SDS011;11472;45.494;12.142;2023-05-07T04:49:00;25.10;;;19.80;;
22610;SDS011;11472;45.494;12.142;2023-05-07T04:50:00;25.10;;;19.80;;
22610;SDS011;11472;45.494;12.142;2023-05-07T04:51:00;25.10;;;19.80;;
22610;SDS011;11472;45.494;12.142;2023-05-07T04:52:01;25.10;;;19.80;;
22610;SDS011;11472;45.494;12.142;2023-05-07T04:53:01;25.10;;;19.80;;
22610;SDS011;11472;45.494;12.142;2023-05-07T04:54:00;25.10;;;19.80;;
22610;SDS011;11472;45.494;12.142;2023-05-07T04:55:00;25.10;;;19.80;;
22610;SDS011;11472;45.494;12.142;2023-05-07T04:56:00;25.10;;;19.80;;
22610;SDS011;11472;45.494;12.142;2023-05-07T04:57:00;25.10;;;19.80;;
22610;SDS011;11472;45.494;12.142;2023-05-07T04:58:01;25.10;;;19.80;;
22610;SDS011;11472;45.494;12.142;2023-05-07T04:59:00;25.10;;;19.80;;
22610;SDS011;11472;45.494;12.142;2023-05-07T05:00:00;25.10;;;19.80;;
22610;SDS011;11472;45.494;12.142;2023-05-07T05:01:01;25.10;;;19.80;;
22610;SDS011;11472;45.494;12.142;2023-05-07T05:02:01;25.10;;;19.80;;
22610;SDS011;11472;45.494;12.142;2023-05-07T05:03:00;24.30;;;18.40;;
22610;SDS011;11472;45.494;12.142;2023-05-07T05:04:00;24.30;;;18.40;;
22610;SDS011;11472;45.494;12.142;2023-05-07T05:05:02;24.30;;;18.40;;
22610;SDS011;11472;45.494;12.142;2023-05-07T05:06:00;24.30;;;18.40;;
22610;SDS011;11472;45.494;12.142;2023-05-07T05:07:00;24.30;;;18.40;;
22610;SDS011;11472;45.494;12.142;2023-05-07T05:08:00;24.30;;;18.40;;
22610;SDS011;11472;45.494;12.142;2023-05-07T05:09:00;24.30;;;18.40;;
22610;SDS011;11472;45.494;12.142;2023-05-07T05:10:02;24.30;;;18.40;;
22610;SDS011;11472;45.494;12.142;2023-05-07T05:11:01;24.30;;;18.40;;
22610;SDS011;11472;45.494;12.142;2023-05-07T05:12:00;24.30;;;18.40;;
22610;SDS011;11472;45.494;12.142;2023-05-07T05:13:00;24.30;;;18.40;;
22610;SDS011;11472;45.494;12.142;2023-05-07T05:14:02;24.30;;;18.40;;
22610;SDS011;11472;45.494;12.142;2023-05-07T05:15:00;24.30;;;18.40;;
22610;SDS011;11472;45.494;12.142;2023-05-07T05:16:00;24.30;;;18.40;;
22610;SDS011;11472;45.494;12.142;2023-05-07T05:17:00;24.30;;;18.40;;
22610;SDS011;11472;45.494;12.142;2023-05-07T05:18:01;25.00;;;17.80;;
22610;SDS011;11472;45.494;12.142;2023-05-07T05:19:01;25.00;;;17.80;;
22610;SDS011;11472;45.494;12.142;2023-05-07T05:20:00;25.00;;;17.80;;
22610;SDS011;11472;45.494;12.142;2023-05-07T05:21:00;25.00;;;17.80;;
22610;SDS011;11472;45.494;12.142;2023-05-07T05:22:03;25.00;;;17.80;;
22610;SDS011;11472;45.494;12.142;2023-05-07T05:23:00;25.00;;;17.80;;
22610;SDS011;11472;45.494;12.142;2023-05-07T05:24:00;25.00;;;17.80;;
22610;SDS011;11472;45.494;12.142;2023-05-07T05:25:01;25.00;;;17.80;;
22610;SDS011;11472;45.494;12.142;2023-05-07T05:26:00;25.00;;;17.80;;
22610;SDS011;11472;45.494;12.142;2023-05-07T05:27:02;25.00;;;17.80;;
22610;SDS011;11472;45.494;12.142;2023-05-07T05:28:01;25.00;;;17.80;;
22610;SDS011;11472;45.494;12.142;2023-05-07T05:29:00;25.00;;;17.80;;
22610;SDS011;11472;45.494;12.142;2023-05-07T05:30:01;25.00;;;17.80;;
22610;SDS011;11472;45.494;12.142;2023-05-07T05:31:00;25.00;;;17.80;;
22610;SDS011;11472;45.494;12.142;2023-05-07T05:32:00;25.00;;;17.80;;
22610;SDS011;11472;45.494;12.142;2023-05-07T05:33:00;27.10;;;19.80;;
22610;SDS011;11472;45.494;12.142;2023-05-07T05:34:02;27.10;;;19.80;;
22610;SDS011;11472;45.494;12.142;2023-05-07T05:35:00;27.10;;;19.80;;
22610;SDS011;11472;45.494;12.142;2023-05-07T05:36:01;27.10;;;19.80;;
22610;SDS011;11472;45.494;12.142;2023-05-07T05:37:00;27.10;;;19.80;;
22610;SDS011;11472;45.494;12.142;2023-05-07T05:38:00;27.10;;;19.80;;
22610;SDS011;11472;45.494;12.142;2023-05-07T05:39:00;27.10;;;19.80;;
22610;SDS011;11472;45.494;12.142;2023-05-07T05:40:00;27.10;;;19.80;;
22610;SDS011;11472;45.494;12.142;2023-05-07T05:41:00;27.10;;;19.80;;
22610;SDS011;11472;45.494;12.142;2023-05-07T05:42:00;27.10;;;19.80;;
22610;SDS011;11472;45.494;12.142;2023-05-07T05:43:00;27.10;;;19.80;;
22610;SDS011;11472;45.494;12.142;2023-05-07T05:44:00;27.10;;;19.80;;
22610;SDS011;11472;45.494;12.142;2023-05-07T05:45:00;27.10;;;19.80;;
22610;SDS011;11472;45.494;12.142;2023-05-07T05:46:00;27.10;;;19.80;;
22610;SDS011;11472;45.494;12.142;2023-05-07T05:47:00;27.10;;;19.80;;